Decoded Metar for KCKM ( in ) (IATA:) | Meteo·Mobile Aviation Weather
aviador You're here:

KCKM Decoded Metar

in
Report Time2019-08-19 18:15:00
UTC Time2019-08-19 18:33:22
Flight Rules vfr VFR
WindCalm
Visibility9999 m
Phenomena:N/A
Clouds:N/A
Expected CloudBase > 2,800 ft AGL from Temp-Dew spread
CeilingNone
Temp34°C
Dew Point27°C (67% RH)
Heat Index45.3°C
QNH1017 hPa
Raw Report
KCKM 191815Z AUTO 00000KT 10SM 34/27 A3002 RMK A01=

Extra information for KCKM:More info

Social comments